Flight Track Log - Related Links

Times and Time Zones

All times are in EDT time to prevent confusion due to time zone crossing. See the FLG4135 flight status page for this flight to view local times or setup timezone preferences in your user account.

Time Position Orientation Groundspeed Altitude Reporting Facility
EDT Latitude Longitude Course Direction KTS MPH feet Rate Location/Type
Mon 08:45:48 AM 44.2522 -88.5986 288° West 157 181 3,500  Level Minneapolis Center
Mon 08:46:49 AM 44.2736 -88.6808 290° West 211 243 5,000 2,439 Climbing Minneapolis Center
Mon 08:47:51 AM 44.2972 -88.7928 286° West 237 273 8,500 2,780 Climbing Minneapolis Center
Mon 08:48:52 AM 44.3128 -88.8939 282° West 255 293 10,700 1,820 Climbing Minneapolis Center
Mon 08:49:53 AM 44.3286 -89.0061 281° West 278 320 12,200 1,122 Climbing Minneapolis Center
Mon 08:50:55 AM 44.3461 -89.1467 280° West 335 386 13,000 976 Climbing Minneapolis Center
Mon 08:51:00 AM 44.3684 -89.2483 288° West  Level Estimated
Mon 08:51:56 AM 44.3619 -89.2864 279° West 359 413 14,200  Level Minneapolis Center
Mon 08:52:58 AM 44.3983 -89.4094 293° West 358 412 15,900 1,659 Climbing Minneapolis Center
Mon 08:53:59 AM 44.4394 -89.5389 294° West 350 403 17,600 1,659 Climbing Minneapolis Center
Mon 08:55:01 AM 44.4856 -89.6611 298° West 338 389 19,300 1,171 Climbing Minneapolis Center
Mon 08:56:02 AM 44.5317 -89.7775 299° West 340 391 20,000 341 Climbing Minneapolis Center
Mon 08:57:04 AM 44.5792 -89.9089 297° West 368 423 20,000  Level Minneapolis Center
Mon 08:58:05 AM 44.6261 -90.0467 296° West 387 445 20,000  Level Minneapolis Center
Mon 08:59:06 AM 44.6503 -90.1897 283° West 379 436 20,000  Level Minneapolis Center
Mon 09:00:09 AM 44.6767 -90.3339 284° West 380 437 20,000  Level Minneapolis Center
Mon 09:01:10 AM 44.7031 -90.4772 285° West 381 438 20,000  Level Minneapolis Center
Mon 09:02:11 AM 44.7289 -90.6228 284° West 364 419 20,000  Level Minneapolis Center
Mon 09:03:13 AM 44.7575 -90.7550 287° West 355 409 20,000  Level Minneapolis Center
Mon 09:04:14 AM 44.7814 -90.8925 284° West 362 417 20,000  Level Minneapolis Center
Mon 09:05:16 AM 44.8067 -91.0283 285° West 359 413 20,000 -195 Level Minneapolis Center
Mon 09:06:17 AM 44.8375 -91.1919 285° West 361 415 19,600 -732 Descending Minneapolis Center
Mon 09:07:19 AM 44.8622 -91.3278 284° West 361 415 18,500 -1,073 Descending Minneapolis Center
Mon 09:08:20 AM 44.8894 -91.4533 287° West 345 397 17,400 -1,024 Descending Minneapolis Center
Mon 09:09:22 AM 44.9172 -91.5789 287° West 338 389 16,400 -976 Descending Minneapolis Center
Mon 09:10:23 AM 44.9372 -91.7108 282° West 343 395 15,400 -976 Descending Minneapolis Center
Mon 09:11:25 AM 44.9561 -91.8358 282° West 333 383 14,400 -976 Descending Minneapolis Center
Mon 09:12:26 AM 44.9789 -91.9578 285° West 323 372 13,400 -984 Descending Minneapolis Center
Mon 09:13:27 AM 44.9992 -92.0814 283° West 323 372 12,400 -1,073 Descending Minneapolis Center
Mon 09:14:29 AM 45.0294 -92.2253 287° West 321 369 11,200 -634 Descending Minneapolis Center
Mon 09:15:30 AM 45.0322 -92.3403 272° West 302 348 11,100 -98 Descending Minneapolis Center
Mon 09:16:31 AM 45.0108 -92.4583 256° West 308 354 11,000 -49 Descending Minneapolis Center
Mon 09:17:33 AM 44.9936 -92.5764 258° West 308 354 11,000  Level Minneapolis Center
Mon 09:18:34 AM 44.9783 -92.6961 260° West 310 357 11,000 -341 Level Minneapolis Center
Mon 09:19:36 AM 44.9672 -92.8114 262° West 299 344 10,300 -1,073 Descending Minneapolis Center
Mon 09:20:37 AM 44.9569 -92.9094 262° West 259 298 8,800 -1,131 Descending Minneapolis Center
Mon 09:21:38 AM 44.9381 -93.0003 254° West 244 281 8,000 -683 Descending Minneapolis Center
Mon 09:22:40 AM 44.9506 -93.1119 279° West 262 302 7,400 -1,268 Descending Minneapolis Center
Mon 09:23:41 AM 44.9892 -93.1989 302° West 265 305 5,400 -1,512 Descending Minneapolis Center
Mon 09:24:43 AM 45.0261 -93.2833 302° West 257 296 4,300 -732 Descending Minneapolis Center
Mon 09:25:44 AM 44.9972 -93.3394 234° Southwest 192 221 3,900 -585 Descending Minneapolis Center
Mon 09:26:46 AM 44.9533 -93.3414 182° South 174 200 3,100 -927 Descending Minneapolis Center
Mon 09:27:47 AM 44.9225 -93.2914 131° Southeast 168 193 2,000 -885 Descending Minneapolis Center
Mon 09:28:48 AM 44.9044 -93.2467 120° Southeast 136 157 1,300 -689 Descending Minneapolis Center
Mon 09:30:00 AM 44.8820 -93.2218 205° Southwest  Level Estimated
Mon 09:37:00 AM 44.8820 -93.2218 205° Southwest  Level Estimated

Login

Don't have an account? Register now (free) for customized features, flight alerts, and more!